Time;durP1;ratioP1;P1;durP2;ratioP2;P2;SDS_P1;SDS_P2;PMS_P1;PMS_P2;Temp;Humidity;BMP_temperature;BMP_pressure;BME280_temperature;BME280_humidity;BME280_pressure;Samples;Min_cycle;Max_cycle;Signal;HPM_P1;HPM_P2
2023/02/19 00:01:40;;;;;;;0.40;0.40;;;15.70;99.10;;;;;;5049848;28;20040;-73
2023/02/19 00:04:13;;;;;;;0.68;0.68;;;15.70;99.10;;;;;;5044386;28;20068;-73
2023/02/19 00:06:38;;;;;;;0.45;0.45;;;15.70;99.10;;;;;;5059757;28;20075;-73
2023/02/19 00:09:04;;;;;;;0.50;0.50;;;15.70;99.00;;;;;;5045274;28;20419;-73
2023/02/19 00:11:31;;;;;;;0.55;0.50;;;15.70;99.10;;;;;;5047376;28;20072;-73
2023/02/19 00:13:57;;;;;;;0.30;0.30;;;15.70;99.10;;;;;;5044012;28;20045;-73
2023/02/19 00:16:28;;;;;;;0.40;0.40;;;15.60;99.10;;;;;;5045682;28;20068;-73
2023/02/19 00:18:54;;;;;;;0.90;0.70;;;15.70;99.10;;;;;;5045523;28;20047;-73
2023/02/19 00:21:19;;;;;;;0.40;0.40;;;15.70;99.10;;;;;;5042614;28;20060;-73
2023/02/19 00:23:49;;;;;;;0.50;0.50;;;15.70;99.10;;;;;;5044837;28;20041;-73
2023/02/19 00:26:15;;;;;;;0.40;0.40;;;15.60;99.10;;;;;;5046129;28;20041;-73
2023/02/19 00:28:40;;;;;;;0.40;0.40;;;15.60;99.10;;;;;;5080439;28;20482;-73
2023/02/19 00:31:16;;;;;;;0.50;0.40;;;15.60;99.10;;;;;;5048857;28;20525;-73
2023/02/19 00:33:41;;;;;;;0.32;0.32;;;15.70;99.10;;;;;;5049824;28;20048;-73
2023/02/19 00:36:07;;;;;;;0.40;0.40;;;15.70;99.10;;;;;;5045782;28;20049;-73
2023/02/19 00:38:35;;;;;;;0.30;0.30;;;15.60;99.10;;;;;;5043292;28;20422;-73
2023/02/19 00:41:00;;;;;;;0.60;0.60;;;15.60;99.10;;;;;;5057085;28;20056;-73
2023/02/19 00:43:26;;;;;;;0.45;0.45;;;15.60;99.10;;;;;;5059627;28;20037;-73
2023/02/19 00:45:52;;;;;;;0.50;0.50;;;15.70;99.10;;;;;;5043989;28;20128;-73
2023/02/19 00:48:17;;;;;;;0.95;0.35;;;15.60;99.10;;;;;;5051531;28;20044;-73
2023/02/19 00:50:43;;;;;;;0.30;0.30;;;15.60;99.10;;;;;;5045094;28;20065;-73
2023/02/19 00:53:08;;;;;;;0.45;0.45;;;15.60;99.40;;;;;;5044109;28;20098;-73
2023/02/19 00:55:35;;;;;;;0.43;0.43;;;15.60;99.10;;;;;;5045234;28;20498;-73
2023/02/19 00:58:01;;;;;;;0.50;0.50;;;15.60;99.10;;;;;;5046271;28;20041;-73
2023/02/19 01:00:26;;;;;;;0.60;0.60;;;15.70;99.10;;;;;;5044361;28;20063;-73
2023/02/19 01:02:52;;;;;;;0.60;0.60;;;15.60;99.10;;;;;;5050289;28;20025;-73
2023/02/19 01:05:18;;;;;;;0.50;0.50;;;15.60;99.10;;;;;;5044829;28;20045;-73
2023/02/19 01:07:43;;;;;;;0.73;0.73;;;15.60;99.10;;;;;;5045898;28;20414;-73
2023/02/19 01:10:09;;;;;;;0.50;0.50;;;15.60;99.10;;;;;;5042176;28;20044;-73
2023/02/19 01:12:34;;;;;;;0.30;0.30;;;15.60;99.10;;;;;;5040165;28;20058;-73
2023/02/19 01:15:00;;;;;;;0.50;0.50;;;15.60;99.10;;;;;;5059256;28;20032;-73
2023/02/19 01:17:26;;;;;;;0.60;0.60;;;15.60;99.10;;;;;;5043523;28;20048;-73
2023/02/19 01:19:51;;;;;;;0.20;0.20;;;15.60;99.10;;;;;;5042452;28;20576;-73
2023/02/19 01:22:17;;;;;;;0.38;0.38;;;15.60;99.10;;;;;;5046067;28;20041;-74
2023/02/19 01:24:42;;;;;;;0.30;0.30;;;15.60;99.10;;;;;;5043914;28;20033;-73
2023/02/19 01:27:08;;;;;;;0.50;0.50;;;15.60;99.10;;;;;;5042000;28;20041;-73
2023/02/19 01:29:33;;;;;;;0.30;0.30;;;15.60;99.10;;;;;;5043861;28;20045;-73
2023/02/19 01:31:59;;;;;;;0.75;0.30;;;15.60;99.10;;;;;;5041215;28;20085;-73
2023/02/19 01:34:25;;;;;;;0.60;0.60;;;15.60;99.10;;;;;;5046688;28;21755;-73
2023/02/19 01:36:51;;;;;;;0.40;0.30;;;15.60;99.10;;;;;;5042296;28;20097;-73
2023/02/19 01:39:17;;;;;;;1.65;0.40;;;15.60;99.10;;;;;;5045003;28;20405;-73
2023/02/19 01:41:42;;;;;;;0.20;0.20;;;15.60;99.10;;;;;;5044923;28;20048;-73
2023/02/19 01:44:28;;;;;;;0.20;0.20;;;15.60;99.10;;;;;;5044287;28;20033;-73
2023/02/19 01:46:56;;;;;;;0.50;0.50;;;15.60;99.10;;;;;;5042677;28;20052;-73
2023/02/19 01:49:26;;;;;;;0.30;0.30;;;15.60;99.10;;;;;;5042832;28;20049;-73
2023/02/19 01:51:57;;;;;;;0.35;0.35;;;15.60;99.20;;;;;;5058275;28;20075;-73
2023/02/19 01:54:25;;;;;;;0.45;0.45;;;15.60;99.20;;;;;;5053808;28;20068;-73
2023/02/19 01:56:50;;;;;;;0.50;0.50;;;15.60;99.20;;;;;;5040583;28;20041;-73
2023/02/19 01:59:16;;;;;;;0.30;0.30;;;15.60;99.20;;;;;;5048646;28;20433;-73
2023/02/19 02:01:42;;;;;;;0.22;0.22;;;15.60;99.20;;;;;;5049117;28;20040;-73
2023/02/19 02:04:09;;;;;;;0.30;0.30;;;15.60;99.20;;;;;;5047754;28;20029;-73
2023/02/19 02:06:54;;;;;;;0.50;0.50;;;15.60;99.20;;;;;;5056803;28;20048;-73
2023/02/19 02:12:09;;;;;;;0.40;0.40;;;15.60;99.10;;;;;;5050432;28;20087;-73
2023/02/19 02:14:36;;;;;;;0.35;0.35;;;15.60;99.20;;;;;;5047166;28;20060;-73
2023/02/19 02:17:13;;;;;;;0.20;0.20;;;15.60;99.10;;;;;;5043889;28;20159;-73
2023/02/19 02:20:03;;;;;;;0.32;0.32;;;15.60;99.10;;;;;;5047459;28;20060;-73
2023/02/19 02:22:55;;;;;;;0.30;0.30;;;15.60;99.20;;;;;;5053704;28;20037;-73
2023/02/19 02:25:32;;;;;;;0.50;0.50;;;15.60;99.20;;;;;;5064121;28;20044;-73
2023/02/19 02:28:21;;;;;;;0.30;0.30;;;15.60;99.10;;;;;;5058374;28;20470;-73
2023/02/19 02:31:21;;;;;;;0.50;0.50;;;15.60;99.20;;;;;;5043997;28;20053;-73
2023/02/19 02:34:00;;;;;;;0.30;0.30;;;15.60;99.20;;;;;;5008199;28;20129;-73
2023/02/19 02:36:40;;;;;;;0.40;0.40;;;15.60;99.10;;;;;;4966725;28;20768;-73
2023/02/19 02:39:07;;;;;;;0.47;0.45;;;;;;;;;;5021090;28;20072;-73
2023/02/19 02:41:33;;;;;;;0.50;0.50;;;;;;;;;;4988448;28;20044;-73
2023/02/19 02:43:59;;;;;;;0.50;0.50;;;;;;;;;;4993296;28;20085;-73
2023/02/19 02:46:29;;;;;;;1.48;0.30;;;;;;;;;;4994876;28;20057;-73
2023/02/19 02:48:58;;;;;;;0.30;0.30;;;;;;;;;;4988294;28;20041;-73
2023/02/19 02:51:31;;;;;;;0.30;0.30;;;;;;;;;;4985145;28;20093;-73
2023/02/19 02:56:44;;;;;;;0.20;0.20;;;;;;;;;;5002135;28;20525;-74
2023/02/19 02:59:12;;;;;;;1.02;0.25;;;;;;;;;;4978354;28;20062;-73
2023/02/19 03:04:31;;;;;;;1.48;0.32;;;;;;;;;;4987961;28;20639;-72
2023/02/19 03:06:56;;;;;;;1.85;0.38;;;;;;;;;;4976684;28;20070;-73
2023/02/19 03:09:29;;;;;;;0.30;0.30;;;;;;;;;;4987595;28;20066;-73
2023/02/19 03:20:14;;;;;;;0.20;0.20;;;;;;;;;;5053065;28;20765;-73
2023/02/19 03:22:40;;;;;;;0.30;0.30;;;;;;;;;;5066146;28;20094;-73
2023/02/19 03:27:50;;;;;;;;;;;;;;;;;;5066603;28;20060;-73
2023/02/19 03:30:20;;;;;;;0.28;0.28;;;;;;;;;;5063051;28;19921;-73
2023/02/19 03:32:48;;;;;;;0.20;0.20;;;;;;;;;;5044027;28;20037;-73
2023/02/19 03:35:16;;;;;;;0.20;0.20;;;;;;;;;;5044248;28;20378;-73
2023/02/19 03:37:46;;;;;;;0.20;0.20;;;;;;;;;;5047150;28;20057;-73
2023/02/19 03:40:12;;;;;;;0.30;0.30;;;;;;;;;;5060182;28;20049;-73
2023/02/19 03:43:04;;;;;;;0.35;0.35;;;;;;;;;;5046815;28;20391;-73
2023/02/19 03:45:37;;;;;;;0.60;0.60;;;;;;;;;;5047045;28;20047;-73
2023/02/19 03:48:21;;;;;;;0.52;0.20;;;;;;;;;;5059431;28;20048;-73
2023/02/19 03:50:49;;;;;;;0.60;0.30;;;;;;;;;;5059390;28;20510;-73
2023/02/19 03:53:17;;;;;;;0.30;0.30;;;;;;;;;;5060429;28;20044;-73
2023/02/19 03:56:10;;;;;;;0.28;0.28;;;;;;;;;;5050066;28;20035;-73
2023/02/19 03:58:56;;;;;;;0.43;0.30;;;;;;;;;;5049224;28;20505;-73
2023/02/19 04:01:25;;;;;;;0.30;0.30;;;;;;;;;;5067752;28;20147;-73
2023/02/19 04:03:53;;;;;;;0.45;0.35;;;;;;;;;;5046197;28;20036;-73
2023/02/19 04:06:21;;;;;;;0.35;0.30;;;;;;;;;;5042649;28;20095;-73
2023/02/19 04:08:48;;;;;;;1.15;1.05;;;;;;;;;;5059327;28;20553;-73
2023/02/19 04:11:14;;;;;;;0.52;0.30;;;;;;;;;;5043648;28;20045;-73
2023/02/19 04:13:48;;;;;;;0.30;0.30;;;;;;;;;;5047365;28;20041;-73
2023/02/19 04:16:18;;;;;;;0.20;0.20;;;;;;;;;;5045165;28;20032;-73
2023/02/19 04:18:44;;;;;;;0.75;0.20;;;;;;;;;;5044057;28;20068;-73
2023/02/19 04:21:10;;;;;;;0.20;0.20;;;;;;;;;;5057809;28;20423;-73
2023/02/19 04:23:37;;;;;;;0.30;0.30;;;;;;;;;;5044412;28;20055;-73
2023/02/19 04:26:04;;;;;;;0.25;0.25;;;;;;;;;;5044744;28;20094;-73
2023/02/19 04:28:29;;;;;;;0.20;0.20;;;;;;;;;;5075886;28;20039;-73
2023/02/19 04:30:55;;;;;;;0.30;0.30;;;;;;;;;;5061540;28;20497;-73
2023/02/19 04:33:21;;;;;;;0.30;0.30;;;;;;;;;;5063424;28;20036;-73
2023/02/19 04:35:47;;;;;;;0.10;0.10;;;;;;;;;;5055548;28;20502;-73
2023/02/19 04:38:13;;;;;;;0.30;0.30;;;;;;;;;;5044503;28;20123;-73
2023/02/19 04:40:39;;;;;;;0.20;0.20;;;;;;;;;;5043406;28;20059;-73
2023/02/19 04:43:05;;;;;;;0.25;0.22;;;;;;;;;;5044390;28;20471;-73
2023/02/19 04:45:31;;;;;;;0.30;0.30;;;;;;;;;;5041470;28;22143;-73
2023/02/19 04:47:58;;;;;;;0.20;0.20;;;;;;;;;;5052670;28;20029;-73
2023/02/19 04:50:24;;;;;;;0.30;0.30;;;;;;;;;;5041864;28;20149;-73
2023/02/19 04:52:50;;;;;;;0.30;0.30;;;;;;;;;;5049678;28;20044;-73
2023/02/19 04:55:16;;;;;;;0.30;0.30;;;;;;;;;;5057829;28;20060;-73
2023/02/19 04:57:42;;;;;;;0.20;0.20;;;;;;;;;;5049434;28;20044;-73
2023/02/19 05:00:08;;;;;;;0.20;0.20;;;;;;;;;;5042996;28;20041;-73
2023/02/19 05:02:34;;;;;;;0.30;0.30;;;;;;;;;;5036813;28;20037;-73
2023/02/19 05:05:00;;;;;;;0.17;0.17;;;15.60;68.80;;;;;;5059729;28;20527;-73
2023/02/19 05:07:25;;;;;;;0.30;0.30;;;15.60;69.80;;;;;;5045559;28;20041;-73
2023/02/19 05:09:51;;;;;;;0.20;0.20;;;15.50;69.90;;;;;;5077371;28;20029;-73
2023/02/19 05:12:17;;;;;;;0.30;0.28;;;15.50;70.20;;;;;;5041830;28;20465;-73
2023/02/19 05:14:42;;;;;;;0.30;0.30;;;15.50;70.20;;;;;;5044194;28;20051;-73
2023/02/19 05:17:08;;;;;;;0.73;0.25;;;15.50;70.30;;;;;;5043394;28;20037;-73
2023/02/19 05:19:33;;;;;;;0.10;0.10;;;15.50;70.30;;;;;;5057127;28;20044;-73
2023/02/19 05:21:59;;;;;;;0.40;0.40;;;15.50;70.30;;;;;;5042696;28;20044;-73
2023/02/19 05:24:26;;;;;;;0.20;0.20;;;15.50;70.30;;;;;;5043963;28;20045;-73
2023/02/19 05:26:51;;;;;;;0.20;0.20;;;15.50;70.30;;;;;;5042171;28;20466;-73
2023/02/19 05:29:17;;;;;;;0.55;0.10;;;15.50;70.20;;;;;;5042967;28;20541;-73
2023/02/19 05:31:43;;;;;;;0.20;0.20;;;15.50;70.30;;;;;;5043514;28;20079;-73
2023/02/19 05:34:08;;;;;;;0.40;0.20;;;15.50;70.30;;;;;;5042025;28;20072;-73
2023/02/19 05:36:36;;;;;;;0.20;0.20;;;15.50;70.30;;;;;;5044050;28;20510;-73
2023/02/19 05:39:01;;;;;;;0.20;0.20;;;15.50;70.40;;;;;;5041828;28;20095;-73
2023/02/19 05:41:28;;;;;;;0.10;0.10;;;15.50;70.30;;;;;;5042895;28;20056;-73
2023/02/19 05:43:53;;;;;;;0.25;0.20;;;15.50;70.40;;;;;;5044795;28;20048;-73
2023/02/19 05:46:21;;;;;;;0.20;0.20;;;15.50;70.40;;;;;;5049028;28;20036;-73
2023/02/19 05:48:47;;;;;;;0.10;0.10;;;15.50;70.40;;;;;;5084829;28;20605;-73
2023/02/19 05:51:14;;;;;;;0.38;0.20;;;15.50;70.30;;;;;;5061812;28;20048;-73
2023/02/19 05:53:40;;;;;;;0.75;0.20;;;15.50;70.20;;;;;;5047772;28;20044;-73
2023/02/19 05:56:32;;;;;;;0.30;0.20;;;15.50;70.30;;;;;;5037058;28;20088;-73
2023/02/19 05:58:58;;;;;;;0.20;0.20;;;15.50;70.30;;;;;;5041291;28;20490;-73
2023/02/19 06:01:26;;;;;;;0.17;0.10;;;15.50;70.30;;;;;;5042419;28;20041;-73
2023/02/19 06:03:52;;;;;;;0.20;0.20;;;15.50;70.30;;;;;;5041409;28;20048;-73
2023/02/19 06:06:17;;;;;;;0.20;0.20;;;15.50;70.30;;;;;;5041039;28;20052;-73
2023/02/19 06:08:43;;;;;;;0.32;0.20;;;15.40;70.30;;;;;;5057271;28;20045;-73
2023/02/19 06:11:09;;;;;;;0.30;0.20;;;15.50;70.20;;;;;;5041830;28;20044;-73
2023/02/19 06:13:34;;;;;;;0.45;0.40;;;15.50;70.50;;;;;;5043946;28;20544;-73
2023/02/19 06:16:03;;;;;;;0.10;0.10;;;15.50;70.30;;;;;;5075016;28;20055;-72
2023/02/19 06:18:29;;;;;;;0.40;0.22;;;15.50;70.20;;;;;;5059375;28;20052;-72
2023/02/19 06:20:59;;;;;;;0.30;0.30;;;15.50;70.10;;;;;;5041231;28;20036;-73
2023/02/19 06:23:27;;;;;;;0.10;0.10;;;15.50;70.00;;;;;;5039225;28;20114;-73
2023/02/19 06:25:52;;;;;;;0.30;0.22;;;15.50;70.10;;;;;;5042770;28;20048;-72
2023/02/19 06:28:18;;;;;;;0.20;0.20;;;15.50;70.30;;;;;;5052265;28;20044;-73
2023/02/19 06:30:43;;;;;;;0.22;0.22;;;15.50;70.20;;;;;;5048862;28;20522;-73
2023/02/19 06:33:09;;;;;;;0.17;0.17;;;15.50;70.10;;;;;;5038980;28;20037;-72
2023/02/19 06:35:35;;;;;;;0.20;0.20;;;15.50;70.10;;;;;;5058633;28;20045;-73
2023/02/19 06:38:02;;;;;;;0.20;0.10;;;15.40;70.20;;;;;;5042688;28;20080;-72
2023/02/19 06:40:27;;;;;;;0.63;0.30;;;15.50;70.10;;;;;;5042790;28;20516;-72
2023/02/19 06:42:53;;;;;;;0.40;0.20;;;15.50;70.10;;;;;;5042428;28;20029;-72
2023/02/19 06:45:19;;;;;;;0.20;0.15;;;15.40;70.10;;;;;;5047275;28;20048;-72
2023/02/19 06:47:44;;;;;;;0.10;0.00;;;15.40;70.00;;;;;;5062010;28;20506;-72
2023/02/19 06:50:10;;;;;;;0.43;0.15;;;15.40;70.00;;;;;;5047496;28;20052;-72
2023/02/19 06:52:35;;;;;;;0.32;0.15;;;15.40;70.20;;;;;;5045764;28;20041;-72
2023/02/19 06:55:01;;;;;;;0.20;0.20;;;15.50;70.00;;;;;;5044852;28;20033;-72
2023/02/19 06:57:26;;;;;;;0.25;0.20;;;15.50;70.20;;;;;;5046426;28;20401;-72
2023/02/19 06:59:52;;;;;;;0.63;0.30;;;15.50;70.20;;;;;;5045239;28;20037;-73
2023/02/19 07:02:18;;;;;;;0.32;0.20;;;15.40;70.10;;;;;;5044057;28;20483;-73
2023/02/19 07:04:43;;;;;;;0.60;0.10;;;15.40;70.10;;;;;;5046206;28;20055;-72
2023/02/19 07:07:11;;;;;;;0.98;0.20;;;15.50;70.10;;;;;;5046677;28;20045;-73
2023/02/19 07:09:37;;;;;;;0.22;0.20;;;15.50;70.10;;;;;;5043584;28;20037;-72
2023/02/19 07:12:03;;;;;;;0.85;0.17;;;15.50;70.00;;;;;;5053091;28;20048;-73
2023/02/19 07:14:28;;;;;;;0.60;0.10;;;15.50;70.10;;;;;;5053049;28;20602;-72
2023/02/19 07:16:54;;;;;;;0.40;0.30;;;15.50;70.10;;;;;;5045200;28;20059;-72
2023/02/19 07:19:20;;;;;;;0.30;0.20;;;15.50;70.10;;;;;;5050007;28;20052;-73
2023/02/19 07:21:45;;;;;;;0.93;0.20;;;15.50;70.20;;;;;;5044739;28;20049;-73
2023/02/19 07:24:11;;;;;;;0.15;0.13;;;15.40;69.90;;;;;;5051338;28;20498;-73
2023/02/19 07:26:37;;;;;;;0.10;0.10;;;15.50;70.30;;;;;;5056167;28;20056;-72
2023/02/19 07:29:03;;;;;;;0.98;0.30;;;15.40;70.10;;;;;;5047763;28;20049;-72
2023/02/19 07:31:28;;;;;;;0.30;0.20;;;15.50;70.10;;;;;;5045653;28;20049;-73
2023/02/19 07:33:54;;;;;;;0.30;0.10;;;15.50;70.20;;;;;;5045258;28;20037;-73
2023/02/19 07:36:20;;;;;;;0.28;0.28;;;15.50;70.20;;;;;;5044919;28;20040;-73
2023/02/19 07:38:46;;;;;;;0.20;0.10;;;15.50;70.20;;;;;;5044459;28;20571;-73
2023/02/19 07:41:12;;;;;;;0.20;0.13;;;15.40;70.20;;;;;;5044036;28;20033;-73
2023/02/19 07:43:38;;;;;;;0.85;0.10;;;15.50;70.00;;;;;;5047255;28;20091;-73
2023/02/19 07:46:08;;;;;;;0.30;0.15;;;15.40;70.20;;;;;;5044568;28;20041;-73
2023/02/19 07:48:34;;;;;;;0.40;0.13;;;15.50;70.30;;;;;;5044145;28;20053;-72
2023/02/19 07:51:00;;;;;;;0.30;0.20;;;15.50;70.00;;;;;;5040036;28;20230;-73
2023/02/19 07:53:26;;;;;;;0.20;0.20;;;15.50;69.90;;;;;;5044278;28;20082;-72
2023/02/19 07:55:52;;;;;;;0.25;0.10;;;15.60;70.30;;;;;;5046022;28;20037;-73
2023/02/19 07:58:17;;;;;;;1.90;0.28;;;15.60;70.50;;;;;;5045175;28;20060;-73
2023/02/19 08:00:43;;;;;;;0.25;0.20;;;15.60;70.90;;;;;;5040624;28;20045;-75
2023/02/19 08:03:09;;;;;;;1.67;0.43;;;15.60;70.70;;;;;;5046396;28;20052;-74
2023/02/19 08:05:39;;;;;;;1.95;0.32;;;15.70;71.10;;;;;;5045688;28;20052;-74
2023/02/19 08:08:05;;;;;;;2.83;0.60;;;15.70;71.10;;;;;;5064594;28;20074;-73
2023/02/19 08:13:18;;;;;;;0.73;0.30;;;15.70;71.50;;;;;;5055289;28;20048;-78
2023/02/19 08:15:50;;;;;;;18.45;0.60;;;15.70;71.30;;;;;;5066490;28;20045;-74
2023/02/19 08:18:16;;;;;;;3.05;0.60;;;15.70;72.30;;;;;;5052459;28;20128;-75
2023/02/19 08:20:42;;;;;;;1.85;0.22;;;15.80;71.80;;;;;;5046145;28;20044;-73
2023/02/19 08:23:08;;;;;;;5.18;0.70;;;15.80;71.80;;;;;;5041285;28;20040;-76
2023/02/19 08:25:34;;;;;;;0.77;0.40;;;15.80;72.00;;;;;;5048258;28;20489;-74
2023/02/19 08:27:59;;;;;;;2.17;0.45;;;15.80;71.80;;;;;;5047224;28;20037;-75
2023/02/19 08:30:26;;;;;;;1.25;0.32;;;15.80;72.40;;;;;;5043011;28;20032;-75
2023/02/19 08:32:52;;;;;;;2.17;0.60;;;15.80;71.90;;;;;;5051644;28;20193;-74
2023/02/19 08:35:17;;;;;;;2.58;0.30;;;15.80;71.70;;;;;;5044318;28;20103;-74
2023/02/19 08:37:43;;;;;;;3.17;0.60;;;15.80;71.90;;;;;;5037968;28;20041;-75
2023/02/19 08:40:09;;;;;;;1.20;0.50;;;15.70;71.40;;;;;;5045380;28;20086;-74
2023/02/19 08:42:34;;;;;;;2.35;0.50;;;15.70;71.40;;;;;;5044969;28;20103;-74
2023/02/19 08:45:00;;;;;;;4.50;0.45;;;15.70;71.10;;;;;;5045094;28;20091;-75
2023/02/19 08:47:26;;;;;;;5.20;1.15;;;15.70;71.70;;;;;;5044600;28;20124;-76
2023/02/19 08:49:51;;;;;;;1.85;0.28;;;15.60;71.60;;;;;;5045475;28;20057;-77
2023/02/19 08:52:18;;;;;;;2.33;0.60;;;15.60;71.50;;;;;;5043959;28;20152;-77
2023/02/19 08:54:44;;;;;;;0.85;0.55;;;15.70;71.80;;;;;;5057399;28;20509;-77
2023/02/19 08:57:09;;;;;;;2.63;0.43;;;15.80;71.20;;;;;;5049357;28;20037;-79
2023/02/19 08:59:35;;;;;;;1.20;0.80;;;15.70;71.60;;;;;;5042095;28;20037;-78
2023/02/19 09:02:01;;;;;;;4.03;0.63;;;15.70;71.60;;;;;;5045413;28;20521;-79
2023/02/19 09:04:26;;;;;;;2.55;0.60;;;15.80;72.80;;;;;;4678829;28;10000402;-80
2023/02/19 09:06:52;;;;;;;2.80;0.50;;;15.80;73.10;;;;;;5039531;28;20044;-82
2023/02/19 09:09:17;;;;;;;1.98;0.43;;;15.80;73.10;;;;;;5041130;28;20572;-77
2023/02/19 09:11:43;;;;;;;3.72;0.52;;;15.80;72.80;;;;;;5040994;28;20060;-80
2023/02/19 09:14:09;;;;;;;1.55;0.80;;;15.80;73.30;;;;;;5037951;28;20577;-83
2023/02/19 09:16:35;;;;;;;2.83;0.95;;;15.90;73.60;;;;;;5039873;28;20056;-80
2023/02/19 09:19:00;;;;;;;1.27;1.10;;;15.80;73.30;;;;;;5032733;28;20045;-80
2023/02/19 09:21:26;;;;;;;3.45;0.70;;;15.80;73.90;;;;;;5038862;28;20037;-78
2023/02/19 09:23:51;;;;;;;3.05;0.85;;;15.90;73.60;;;;;;5057705;28;20162;-86
2023/02/19 09:26:17;;;;;;;2.50;1.00;;;15.80;73.60;;;;;;5050667;28;20036;-79
2023/02/19 09:28:43;;;;;;;3.17;1.65;;;15.80;73.50;;;;;;5047738;28;20502;-80
2023/02/19 09:31:10;;;;;;;5.18;2.30;;;15.80;73.60;;;;;;5054329;28;20052;-79
2023/02/19 09:33:36;;;;;;;4.35;3.22;;;15.90;74.40;;;;;;5039708;28;20098;-81
2023/02/19 09:36:02;;;;;;;4.85;2.60;;;15.80;74.50;;;;;;5035781;28;20054;-79
2023/02/19 09:38:29;;;;;;;5.25;2.85;;;15.80;73.40;;;;;;5039190;28;20118;-80
2023/02/19 09:40:56;;;;;;;4.03;2.92;;;15.90;74.50;;;;;;5040118;28;20053;-80
2023/02/19 09:43:22;;;;;;;11.27;2.58;;;15.80;74.90;;;;;;5041136;28;20148;-84
2023/02/19 09:45:47;;;;;;;5.95;2.20;;;15.90;74.40;;;;;;5049225;28;20142;-87
2023/02/19 09:48:13;;;;;;;3.90;2.78;;;15.80;74.80;;;;;;5040994;28;20056;-84
2023/02/19 09:50:41;;;;;;;5.10;2.47;;;15.90;74.90;;;;;;5042097;28;20105;-80
2023/02/19 09:53:28;;;;;;;3.80;2.65;;;15.90;74.50;;;;;;5059490;28;20106;-84
2023/02/19 09:55:54;;;;;;;5.30;2.92;;;15.90;74.50;;;;;;5046996;28;20094;-80
2023/02/19 09:58:34;;;;;;;8.27;4.47;;;15.90;74.90;;;;;;5035341;28;20507;-78
2023/02/19 10:01:01;;;;;;;10.27;4.80;;;15.90;75.10;;;;;;5036944;28;20041;-80
2023/02/19 10:03:33;;;;;;;8.50;4.38;;;15.90;75.00;;;;;;5056210;28;20045;-79
2023/02/19 10:06:06;;;;;;;11.93;4.78;;;16.00;74.80;;;;;;5079962;28;20039;-78
2023/02/19 10:08:33;;;;;;;13.38;5.35;;;16.00;75.10;;;;;;5072540;28;20088;-79
2023/02/19 10:10:59;;;;;;;10.57;4.90;;;16.00;74.80;;;;;;5053766;28;20044;-80
2023/02/19 10:13:44;;;;;;;8.50;4.85;;;16.00;75.30;;;;;;5054994;28;20127;-79
2023/02/19 10:16:16;;;;;;;6.15;3.97;;;16.10;74.80;;;;;;5043735;28;20429;-79
2023/02/19 10:18:42;;;;;;;7.65;4.43;;;16.10;74.40;;;;;;5039121;28;20034;-81
2023/02/19 10:21:18;;;;;;;17.08;10.00;;;16.00;74.90;;;;;;5050393;28;20087;-79
2023/02/19 10:23:44;;;;;;;31.85;16.73;;;16.00;75.10;;;;;;5038818;28;20255;-83
2023/02/19 10:26:09;;;;;;;25.98;14.52;;;16.00;76.30;;;;;;5048096;28;20617;-83
2023/02/19 10:28:35;;;;;;;25.30;14.63;;;16.00;75.90;;;;;;5046036;28;20623;-83
2023/02/19 10:31:03;;;;;;;20.92;12.32;;;16.00;75.90;;;;;;5037307;28;20047;-79
2023/02/19 10:33:29;;;;;;;18.90;10.13;;;16.10;76.80;;;;;;5050021;28;20044;-79
2023/02/19 10:36:09;;;;;;;19.23;10.27;;;16.10;76.10;;;;;;5044174;28;20044;-83
2023/02/19 10:38:37;;;;;;;19.13;10.55;;;16.10;75.70;;;;;;5045774;28;20098;-80
2023/02/19 10:41:11;;;;;;;21.55;11.20;;;16.10;75.80;;;;;;5046019;28;20053;-84
2023/02/19 10:43:39;;;;;;;24.55;12.23;;;16.10;75.70;;;;;;5050486;28;20056;-83
2023/02/19 10:46:07;;;;;;;21.88;11.25;;;16.10;76.10;;;;;;5043780;28;20056;-80
2023/02/19 10:48:37;;;;;;;21.77;11.13;;;16.20;75.90;;;;;;5048254;28;20631;-80
2023/02/19 10:51:08;;;;;;;18.73;10.77;;;16.20;75.80;;;;;;5032183;28;20419;-79
2023/02/19 10:53:44;;;;;;;17.85;10.50;;;16.10;75.50;;;;;;5045930;28;20437;-80
2023/02/19 10:56:11;;;;;;;19.58;10.70;;;16.20;75.60;;;;;;5045514;28;20111;-83
2023/02/19 10:58:39;;;;;;;22.23;11.20;;;16.20;75.30;;;;;;5044720;28;20135;-87
2023/02/19 11:01:15;;;;;;;21.58;10.10;;;16.10;74.70;;;;;;4695630;28;10000501;-85
2023/02/19 11:03:41;;;;;;;18.73;8.82;;;16.10;74.80;;;;;;5058468;28;20569;-82
2023/02/19 11:06:08;;;;;;;27.92;10.10;;;16.20;75.00;;;;;;5044184;28;20095;-80
2023/02/19 11:08:45;;;;;;;25.48;9.30;;;16.10;75.30;;;;;;5056182;28;20118;-83
2023/02/19 11:11:30;;;;;;;19.70;8.65;;;16.20;77.20;;;;;;5064588;28;20068;-81
2023/02/19 11:13:56;;;;;;;15.75;7.00;;;16.20;77.50;;;;;;5045320;28;20067;-81
2023/02/19 11:16:40;;;;;;;17.23;7.68;;;16.20;76.70;;;;;;5051032;28;20114;-82
2023/02/19 11:19:15;;;;;;;17.42;7.43;;;16.20;77.90;;;;;;5060685;28;20115;-83
2023/02/19 11:21:41;;;;;;;13.90;7.05;;;16.20;77.10;;;;;;5042561;28;20048;-81
2023/02/19 11:24:12;;;;;;;14.73;6.68;;;16.30;78.50;;;;;;5042258;28;20049;-81
2023/02/19 11:26:38;;;;;;;9.32;6.43;;;16.30;80.60;;;;;;5034328;28;20032;-85
2023/02/19 11:29:23;;;;;;;8.57;5.47;;;16.30;81.00;;;;;;5035599;28;20465;-81
2023/02/19 11:31:49;;;;;;;14.38;5.63;;;16.30;78.20;;;;;;5050627;28;20061;-84
2023/02/19 11:34:19;;;;;;;13.35;4.72;;;16.30;79.80;;;;;;5060741;28;20059;-82
2023/02/19 11:36:45;;;;;;;12.90;5.82;;;16.40;76.60;;;;;;5037594;28;20049;-83
2023/02/19 11:39:14;;;;;;;8.43;4.53;;;16.40;76.30;;;;;;5042332;28;20045;-86
2023/02/19 11:42:02;;;;;;;8.90;4.85;;;16.40;75.90;;;;;;5060417;28;20044;-84
2023/02/19 11:45:04;;;;;;;10.60;4.55;;;16.40;75.70;;;;;;5042728;28;20223;-85
2023/02/19 11:48:02;;;;;;;10.70;4.95;;;16.40;75.10;;;;;;5054167;28;20507;-81
2023/02/19 11:50:52;;;;;;;7.90;4.68;;;16.40;74.90;;;;;;5071372;28;20079;-84
2023/02/19 11:53:25;;;;;;;8.10;4.95;;;16.30;74.60;;;;;;5036116;28;20187;-81
2023/02/19 11:56:22;;;;;;;6.82;4.53;;;16.30;74.30;;;;;;5048466;28;20167;-83
2023/02/19 11:59:03;;;;;;;8.27;4.25;;;16.30;74.30;;;;;;5054367;28;20049;-83
2023/02/19 12:01:57;;;;;;;7.13;3.80;;;16.30;74.30;;;;;;5054869;28;20060;-83
2023/02/19 12:05:00;;;;;;;7.38;4.18;;;16.30;74.40;;;;;;5044645;28;20063;-83
2023/02/19 12:07:41;;;;;;;8.85;4.22;;;16.40;99.90;;;;;;5042931;28;20052;-84
2023/02/19 12:10:18;;;;;;;4.80;4.28;;;16.40;99.90;;;;;;5044594;28;20044;-82
2023/02/19 12:13:00;;;;;;;6.13;3.65;;;16.40;99.90;;;;;;5040907;28;20048;-82
2023/02/19 12:15:31;;;;;;;5.45;3.30;;;16.40;99.90;;;;;;5040322;28;20106;-82
2023/02/19 12:18:07;;;;;;;6.60;4.43;;;16.40;99.70;;;;;;5036466;28;20053;-80
2023/02/19 12:21:10;;;;;;;7.05;3.17;;;16.40;99.80;;;;;;5053278;28;20048;-84
2023/02/19 12:23:54;;;;;;;6.40;3.05;;;16.40;99.60;;;;;;5039157;28;20025;-82
2023/02/19 12:26:20;;;;;;;5.03;3.53;;;16.40;99.50;;;;;;5041527;28;20182;-83
2023/02/19 12:28:56;;;;;;;8.10;3.67;;;16.40;99.50;;;;;;5041371;28;20132;-83
2023/02/19 12:31:55;;;;;;;4.55;3.35;;;16.40;99.50;;;;;;5042729;28;20052;-81
2023/02/19 12:34:30;;;;;;;4.38;2.67;;;16.40;99.50;;;;;;5055412;28;20127;-82
2023/02/19 12:37:18;;;;;;;6.22;2.75;;;16.40;99.40;;;;;;5048971;28;20130;-82
2023/02/19 12:39:54;;;;;;;6.13;2.88;;;16.40;99.50;;;;;;5040880;28;20502;-81
2023/02/19 12:42:37;;;;;;;6.60;2.83;;;16.50;99.40;;;;;;5040235;28;20041;-78
2023/02/19 12:45:19;;;;;;;6.93;2.88;;;16.40;99.40;;;;;;5047379;28;20052;-79
2023/02/19 12:47:50;;;;;;;3.65;2.55;;;16.50;99.50;;;;;;5036092;28;20033;-79
2023/02/19 12:50:22;;;;;;;5.22;3.13;;;16.40;99.40;;;;;;5043580;28;20440;-79
2023/02/19 12:53:00;;;;;;;5.03;2.90;;;16.50;99.40;;;;;;5040126;28;20733;-80
2023/02/19 12:55:38;;;;;;;3.58;2.65;;;16.50;99.40;;;;;;5045687;28;20040;-79
2023/02/19 12:58:04;;;;;;;5.57;2.47;;;16.50;99.30;;;;;;5059841;28;20084;-81
2023/02/19 13:00:35;;;;;;;4.00;2.83;;;16.50;99.20;;;;;;5055518;28;20047;-77
2023/02/19 13:03:36;;;;;;;4.47;2.40;;;16.50;99.20;;;;;;5038303;28;20518;-79
2023/02/19 13:06:15;;;;;;;5.50;2.40;;;16.50;99.20;;;;;;5039451;28;20581;-79
2023/02/19 13:08:46;;;;;;;3.85;2.63;;;16.50;99.20;;;;;;5040835;28;20067;-78
2023/02/19 13:11:31;;;;;;;3.38;2.45;;;16.50;99.10;;;;;;5025897;28;20106;-80
2023/02/19 13:14:05;;;;;;;4.75;2.17;;;16.50;99.20;;;;;;5071941;28;20048;-77
2023/02/19 13:16:32;;;;;;;3.63;1.85;;;16.50;99.10;;;;;;5056490;28;20044;-78
2023/02/19 13:18:59;;;;;;;3.72;2.00;;;16.50;99.00;;;;;;5044567;28;20051;-79
2023/02/19 13:24:21;;;;;;;2.67;1.88;;;16.50;99.10;;;;;;5033988;28;20059;-80
2023/02/19 13:26:48;;;;;;;3.25;1.50;;;16.60;99.10;;;;;;5048464;28;20055;-78
2023/02/19 13:29:38;;;;;;;4.00;1.90;;;16.60;98.60;;;;;;4713981;28;10000288;-78
2023/02/19 13:32:22;;;;;;;2.75;1.83;;;16.50;98.10;;;;;;5059427;28;20812;-77
2023/02/19 13:34:53;;;;;;;3.15;1.23;;;16.50;97.60;;;;;;5058763;28;20387;-77
2023/02/19 13:37:19;;;;;;;2.38;1.30;;;16.50;97.30;;;;;;5051811;28;20047;-76
2023/02/19 13:39:51;;;;;;;2.50;1.05;;;16.40;96.70;;;;;;5054251;28;20045;-78
2023/02/19 13:42:30;;;;;;;3.50;1.20;;;16.40;96.80;;;;;;5038556;28;20044;-77